<?xml version="1.0" encoding="UTF-8" standalone="no" ?>
<gpx xmlns="http://www.topografix.com/GPX/1/1" xmlns:xsi="http://www.w3.org/2001/XMLSchema-instance" xsi:schemaLocation="http://www.topografix.com/GPX/1/1 http://www.topografix.com/GPX/1/1/gpx.xsd" version="1.1" creator="VisuGPX - https://www.visugpx.com">
  <metadata>
    <name>Parcours VTT Aglo 2021</name>
  </metadata>
  <trk>
    <name><![CDATA[Rouge Cornillon Frigoulet]]></name>
    <extensions>
      <line xmlns="http://www.topografix.com/GPX/gpx_style/0/2">
        <color>fa0000</color>
        <width>4</width>
      </line>
    </extensions>
    <trkseg>
      <trkpt lat="44.21825" lon="4.48561">
        <ele>88</ele>
        <time>2021-07-04T13:05:11Z</time>
      </trkpt>
      <trkpt lat="44.21825" lon="4.48561">
        <ele>88</ele>
        <time>2021-07-04T13:05:11Z</time>
      </trkpt>
      <trkpt lat="44.21834" lon="4.48531">
        <ele>85</ele>
        <time>2021-07-04T13:05:16Z</time>
      </trkpt>
      <trkpt lat="44.21952" lon="4.48376">
        <ele>81</ele>
        <time>2021-07-04T13:05:54Z</time>
      </trkpt>
      <trkpt lat="44.22178" lon="4.48044">
        <ele>85</ele>
        <time>2021-07-04T13:07:11Z</time>
      </trkpt>
      <trkpt lat="44.22074" lon="4.47925">
        <ele>79</ele>
        <time>2021-07-04T13:07:42Z</time>
      </trkpt>
      <trkpt lat="44.21937" lon="4.47766">
        <ele>77</ele>
        <time>2021-07-04T13:08:24Z</time>
      </trkpt>
      <trkpt lat="44.218" lon="4.47608">
        <ele>77</ele>
        <time>2021-07-04T13:09:05Z</time>
      </trkpt>
      <trkpt lat="44.2175" lon="4.47495">
        <ele>79</ele>
        <time>2021-07-04T13:09:28Z</time>
      </trkpt>
      <trkpt lat="44.21652" lon="4.47268">
        <ele>80</ele>
        <time>2021-07-04T13:10:12Z</time>
      </trkpt>
      <trkpt lat="44.21641" lon="4.47166">
        <ele>78</ele>
        <time>2021-07-04T13:10:29Z</time>
      </trkpt>
      <trkpt lat="44.2165" lon="4.47064">
        <ele>79</ele>
        <time>2021-07-04T13:10:47Z</time>
      </trkpt>
      <trkpt lat="44.2172" lon="4.47035">
        <ele>78</ele>
        <time>2021-07-04T13:11:04Z</time>
      </trkpt>
      <trkpt lat="44.21849" lon="4.46987">
        <ele>79</ele>
        <time>2021-07-04T13:11:35Z</time>
      </trkpt>
      <trkpt lat="44.21944" lon="4.46864">
        <ele>80</ele>
        <time>2021-07-04T13:12:05Z</time>
      </trkpt>
      <trkpt lat="44.22022" lon="4.46769">
        <ele>83</ele>
        <time>2021-07-04T13:12:29Z</time>
      </trkpt>
      <trkpt lat="44.22048" lon="4.46782">
        <ele>85</ele>
        <time>2021-07-04T13:12:36Z</time>
      </trkpt>
      <trkpt lat="44.22136" lon="4.46773">
        <ele>94</ele>
        <time>2021-07-04T13:12:56Z</time>
      </trkpt>
      <trkpt lat="44.22152" lon="4.46743">
        <ele>98</ele>
        <time>2021-07-04T13:13:02Z</time>
      </trkpt>
      <trkpt lat="44.22145" lon="4.467">
        <ele>99</ele>
        <time>2021-07-04T13:13:10Z</time>
      </trkpt>
      <trkpt lat="44.22132" lon="4.4665">
        <ele>98</ele>
        <time>2021-07-04T13:13:19Z</time>
      </trkpt>
      <trkpt lat="44.22122" lon="4.466">
        <ele>98</ele>
        <time>2021-07-04T13:13:27Z</time>
      </trkpt>
      <trkpt lat="44.22103" lon="4.46443">
        <ele>91</ele>
        <time>2021-07-04T13:13:54Z</time>
      </trkpt>
      <trkpt lat="44.22055" lon="4.4634">
        <ele>86</ele>
        <time>2021-07-04T13:14:15Z</time>
      </trkpt>
      <trkpt lat="44.22035" lon="4.46373">
        <ele>87</ele>
        <time>2021-07-04T13:14:22Z</time>
      </trkpt>
      <trkpt lat="44.22002" lon="4.46413">
        <ele>87</ele>
        <time>2021-07-04T13:14:32Z</time>
      </trkpt>
      <trkpt lat="44.21947" lon="4.46445">
        <ele>86</ele>
        <time>2021-07-04T13:14:46Z</time>
      </trkpt>
      <trkpt lat="44.21926" lon="4.46424">
        <ele>87</ele>
        <time>2021-07-04T13:14:52Z</time>
      </trkpt>
      <trkpt lat="44.2188" lon="4.4641">
        <ele>87</ele>
        <time>2021-07-04T13:15:03Z</time>
      </trkpt>
      <trkpt lat="44.21788" lon="4.46333">
        <ele>90</ele>
        <time>2021-07-04T13:15:28Z</time>
      </trkpt>
      <trkpt lat="44.21762" lon="4.46275">
        <ele>94</ele>
        <time>2021-07-04T13:15:40Z</time>
      </trkpt>
      <trkpt lat="44.21647" lon="4.46198">
        <ele>99</ele>
        <time>2021-07-04T13:16:09Z</time>
      </trkpt>
      <trkpt lat="44.21579" lon="4.46281">
        <ele>102</ele>
        <time>2021-07-04T13:16:30Z</time>
      </trkpt>
      <trkpt lat="44.21421" lon="4.46281">
        <ele>113</ele>
        <time>2021-07-04T13:17:07Z</time>
      </trkpt>
      <trkpt lat="44.21397" lon="4.46247">
        <ele>113</ele>
        <time>2021-07-04T13:17:15Z</time>
      </trkpt>
      <trkpt lat="44.21381" lon="4.4603">
        <ele>128</ele>
        <time>2021-07-04T13:17:52Z</time>
      </trkpt>
      <trkpt lat="44.21391" lon="4.4594">
        <ele>134</ele>
        <time>2021-07-04T13:18:07Z</time>
      </trkpt>
      <trkpt lat="44.21381" lon="4.45801">
        <ele>145</ele>
        <time>2021-07-04T13:18:30Z</time>
      </trkpt>
      <trkpt lat="44.21402" lon="4.45734">
        <ele>151</ele>
        <time>2021-07-04T13:18:43Z</time>
      </trkpt>
      <trkpt lat="44.21482" lon="4.45696">
        <ele>158</ele>
        <time>2021-07-04T13:19:02Z</time>
      </trkpt>
      <trkpt lat="44.21562" lon="4.45535">
        <ele>165</ele>
        <time>2021-07-04T13:19:35Z</time>
      </trkpt>
      <trkpt lat="44.21582" lon="4.45445">
        <ele>174</ele>
        <time>2021-07-04T13:19:51Z</time>
      </trkpt>
      <trkpt lat="44.21551" lon="4.45355">
        <ele>181</ele>
        <time>2021-07-04T13:20:08Z</time>
      </trkpt>
      <trkpt lat="44.21476" lon="4.45288">
        <ele>184</ele>
        <time>2021-07-04T13:20:29Z</time>
      </trkpt>
      <trkpt lat="44.21473" lon="4.45234">
        <ele>191</ele>
        <time>2021-07-04T13:20:38Z</time>
      </trkpt>
      <trkpt lat="44.21447" lon="4.45187">
        <ele>192</ele>
        <time>2021-07-04T13:20:48Z</time>
      </trkpt>
      <trkpt lat="44.21462" lon="4.45099">
        <ele>205</ele>
        <time>2021-07-04T13:21:03Z</time>
      </trkpt>
      <trkpt lat="44.21428" lon="4.45007">
        <ele>218</ele>
        <time>2021-07-04T13:21:20Z</time>
      </trkpt>
      <trkpt lat="44.21353" lon="4.4493">
        <ele>220</ele>
        <time>2021-07-04T13:21:42Z</time>
      </trkpt>
      <trkpt lat="44.21384" lon="4.44801">
        <ele>237</ele>
        <time>2021-07-04T13:22:05Z</time>
      </trkpt>
      <trkpt lat="44.21382" lon="4.44734">
        <ele>242</ele>
        <time>2021-07-04T13:22:16Z</time>
      </trkpt>
      <trkpt lat="44.2135" lon="4.44657">
        <ele>244</ele>
        <time>2021-07-04T13:22:31Z</time>
      </trkpt>
      <trkpt lat="44.21368" lon="4.44595">
        <ele>242</ele>
        <time>2021-07-04T13:22:42Z</time>
      </trkpt>
      <trkpt lat="44.21417" lon="4.44565">
        <ele>245</ele>
        <time>2021-07-04T13:22:54Z</time>
      </trkpt>
      <trkpt lat="44.21447" lon="4.44488">
        <ele>244</ele>
        <time>2021-07-04T13:23:09Z</time>
      </trkpt>
      <trkpt lat="44.21561" lon="4.44282">
        <ele>252</ele>
        <time>2021-07-04T13:23:53Z</time>
      </trkpt>
      <trkpt lat="44.21565" lon="4.44211">
        <ele>254</ele>
        <time>2021-07-04T13:24:04Z</time>
      </trkpt>
      <trkpt lat="44.21616" lon="4.44114">
        <ele>256</ele>
        <time>2021-07-04T13:24:25Z</time>
      </trkpt>
      <trkpt lat="44.2166" lon="4.44065">
        <ele>257</ele>
        <time>2021-07-04T13:24:38Z</time>
      </trkpt>
      <trkpt lat="44.21653" lon="4.44011">
        <ele>256</ele>
        <time>2021-07-04T13:24:47Z</time>
      </trkpt>
      <trkpt lat="44.21662" lon="4.43833">
        <ele>260</ele>
        <time>2021-07-04T13:25:17Z</time>
      </trkpt>
      <trkpt lat="44.21545" lon="4.43657">
        <ele>271</ele>
        <time>2021-07-04T13:25:57Z</time>
      </trkpt>
      <trkpt lat="44.21533" lon="4.43591">
        <ele>273</ele>
        <time>2021-07-04T13:26:08Z</time>
      </trkpt>
      <trkpt lat="44.21377" lon="4.43342">
        <ele>283</ele>
        <time>2021-07-04T13:27:04Z</time>
      </trkpt>
      <trkpt lat="44.21276" lon="4.43271">
        <ele>286</ele>
        <time>2021-07-04T13:27:30Z</time>
      </trkpt>
      <trkpt lat="44.21075" lon="4.43172">
        <ele>312</ele>
        <time>2021-07-04T13:28:20Z</time>
      </trkpt>
      <trkpt lat="44.20922" lon="4.43232">
        <ele>318</ele>
        <time>2021-07-04T13:28:57Z</time>
      </trkpt>
      <trkpt lat="44.20916" lon="4.43325">
        <ele>328</ele>
        <time>2021-07-04T13:29:13Z</time>
      </trkpt>
      <trkpt lat="44.2073" lon="4.43443">
        <ele>326</ele>
        <time>2021-07-04T13:30:00Z</time>
      </trkpt>
      <trkpt lat="44.20572" lon="4.43428">
        <ele>328</ele>
        <time>2021-07-04T13:30:37Z</time>
      </trkpt>
      <trkpt lat="44.20535" lon="4.43355">
        <ele>324</ele>
        <time>2021-07-04T13:30:52Z</time>
      </trkpt>
      <trkpt lat="44.20484" lon="4.43155">
        <ele>315</ele>
        <time>2021-07-04T13:31:28Z</time>
      </trkpt>
      <trkpt lat="44.2041" lon="4.42956">
        <ele>314</ele>
        <time>2021-07-04T13:32:05Z</time>
      </trkpt>
      <trkpt lat="44.20362" lon="4.42771">
        <ele>313</ele>
        <time>2021-07-04T13:32:38Z</time>
      </trkpt>
      <trkpt lat="44.20399" lon="4.42713">
        <ele>310</ele>
        <time>2021-07-04T13:32:51Z</time>
      </trkpt>
      <trkpt lat="44.20436" lon="4.42604">
        <ele>306</ele>
        <time>2021-07-04T13:33:12Z</time>
      </trkpt>
      <trkpt lat="44.20436" lon="4.42554">
        <ele>304</ele>
        <time>2021-07-04T13:33:20Z</time>
      </trkpt>
      <trkpt lat="44.20501" lon="4.42404">
        <ele>301</ele>
        <time>2021-07-04T13:33:49Z</time>
      </trkpt>
      <trkpt lat="44.20541" lon="4.42305">
        <ele>299</ele>
        <time>2021-07-04T13:34:08Z</time>
      </trkpt>
      <trkpt lat="44.20538" lon="4.42091">
        <ele>298</ele>
        <time>2021-07-04T13:34:44Z</time>
      </trkpt>
      <trkpt lat="44.20562" lon="4.42044">
        <ele>299</ele>
        <time>2021-07-04T13:34:54Z</time>
      </trkpt>
      <trkpt lat="44.2071" lon="4.41821">
        <ele>301</ele>
        <time>2021-07-04T13:35:45Z</time>
      </trkpt>
      <trkpt lat="44.20824" lon="4.41557">
        <ele>307</ele>
        <time>2021-07-04T13:36:36Z</time>
      </trkpt>
      <trkpt lat="44.20973" lon="4.4149">
        <ele>310</ele>
        <time>2021-07-04T13:37:13Z</time>
      </trkpt>
      <trkpt lat="44.21045" lon="4.41391">
        <ele>311</ele>
        <time>2021-07-04T13:37:36Z</time>
      </trkpt>
      <trkpt lat="44.21165" lon="4.41284">
        <ele>302</ele>
        <time>2021-07-04T13:38:10Z</time>
      </trkpt>
      <trkpt lat="44.21299" lon="4.41192">
        <ele>293</ele>
        <time>2021-07-04T13:38:45Z</time>
      </trkpt>
      <trkpt lat="44.21368" lon="4.41119">
        <ele>292</ele>
        <time>2021-07-04T13:39:05Z</time>
      </trkpt>
      <trkpt lat="44.21487" lon="4.4111">
        <ele>298</ele>
        <time>2021-07-04T13:39:33Z</time>
      </trkpt>
      <trkpt lat="44.21622" lon="4.41078">
        <ele>307</ele>
        <time>2021-07-04T13:40:05Z</time>
      </trkpt>
      <trkpt lat="44.21831" lon="4.41059">
        <ele>313</ele>
        <time>2021-07-04T13:40:53Z</time>
      </trkpt>
      <trkpt lat="44.21891" lon="4.4102">
        <ele>311</ele>
        <time>2021-07-04T13:41:09Z</time>
      </trkpt>
      <trkpt lat="44.22077" lon="4.40949">
        <ele>305</ele>
        <time>2021-07-04T13:41:54Z</time>
      </trkpt>
      <trkpt lat="44.22142" lon="4.40979">
        <ele>306</ele>
        <time>2021-07-04T13:42:10Z</time>
      </trkpt>
      <trkpt lat="44.22211" lon="4.41213">
        <ele>318</ele>
        <time>2021-07-04T13:42:52Z</time>
      </trkpt>
      <trkpt lat="44.22277" lon="4.41142">
        <ele>316</ele>
        <time>2021-07-04T13:43:12Z</time>
      </trkpt>
      <trkpt lat="44.2232" lon="4.41082">
        <ele>312</ele>
        <time>2021-07-04T13:43:26Z</time>
      </trkpt>
      <trkpt lat="44.22456" lon="4.41151">
        <ele>302</ele>
        <time>2021-07-04T13:44:00Z</time>
      </trkpt>
      <trkpt lat="44.22577" lon="4.41323">
        <ele>284</ele>
        <time>2021-07-04T13:44:40Z</time>
      </trkpt>
      <trkpt lat="44.22612" lon="4.4143">
        <ele>275</ele>
        <time>2021-07-04T13:45:00Z</time>
      </trkpt>
      <trkpt lat="44.22749" lon="4.41563">
        <ele>256</ele>
        <time>2021-07-04T13:45:39Z</time>
      </trkpt>
      <trkpt lat="44.22908" lon="4.41649">
        <ele>240</ele>
        <time>2021-07-04T13:46:19Z</time>
      </trkpt>
      <trkpt lat="44.2294" lon="4.41732">
        <ele>243</ele>
        <time>2021-07-04T13:46:34Z</time>
      </trkpt>
      <trkpt lat="44.22934" lon="4.42069">
        <ele>225</ele>
        <time>2021-07-04T13:47:31Z</time>
      </trkpt>
      <trkpt lat="44.22968" lon="4.42202">
        <ele>218</ele>
        <time>2021-07-04T13:47:54Z</time>
      </trkpt>
      <trkpt lat="44.22929" lon="4.42314">
        <ele>205</ele>
        <time>2021-07-04T13:48:15Z</time>
      </trkpt>
      <trkpt lat="44.22971" lon="4.42417">
        <ele>196</ele>
        <time>2021-07-04T13:48:35Z</time>
      </trkpt>
      <trkpt lat="44.22984" lon="4.42533">
        <ele>188</ele>
        <time>2021-07-04T13:48:55Z</time>
      </trkpt>
      <trkpt lat="44.23008" lon="4.42601">
        <ele>189</ele>
        <time>2021-07-04T13:49:07Z</time>
      </trkpt>
      <trkpt lat="44.22904" lon="4.42689">
        <ele>185</ele>
        <time>2021-07-04T13:49:36Z</time>
      </trkpt>
      <trkpt lat="44.22937" lon="4.42734">
        <ele>179</ele>
        <time>2021-07-04T13:49:47Z</time>
      </trkpt>
      <trkpt lat="44.22968" lon="4.42807">
        <ele>175</ele>
        <time>2021-07-04T13:50:01Z</time>
      </trkpt>
      <trkpt lat="44.22968" lon="4.42865">
        <ele>170</ele>
        <time>2021-07-04T13:50:10Z</time>
      </trkpt>
      <trkpt lat="44.22995" lon="4.4291">
        <ele>158</ele>
        <time>2021-07-04T13:50:20Z</time>
      </trkpt>
      <trkpt lat="44.22997" lon="4.42966">
        <ele>154</ele>
        <time>2021-07-04T13:50:30Z</time>
      </trkpt>
      <trkpt lat="44.23043" lon="4.43022">
        <ele>153</ele>
        <time>2021-07-04T13:50:44Z</time>
      </trkpt>
      <trkpt lat="44.23054" lon="4.43099">
        <ele>147</ele>
        <time>2021-07-04T13:50:57Z</time>
      </trkpt>
      <trkpt lat="44.23106" lon="4.43194">
        <ele>141</ele>
        <time>2021-07-04T13:51:17Z</time>
      </trkpt>
      <trkpt lat="44.23143" lon="4.4323">
        <ele>141</ele>
        <time>2021-07-04T13:51:28Z</time>
      </trkpt>
      <trkpt lat="44.23174" lon="4.43305">
        <ele>138</ele>
        <time>2021-07-04T13:51:42Z</time>
      </trkpt>
      <trkpt lat="44.2325" lon="4.43389">
        <ele>133</ele>
        <time>2021-07-04T13:52:05Z</time>
      </trkpt>
      <trkpt lat="44.23278" lon="4.43458">
        <ele>133</ele>
        <time>2021-07-04T13:52:18Z</time>
      </trkpt>
      <trkpt lat="44.23306" lon="4.43503">
        <ele>128</ele>
        <time>2021-07-04T13:52:28Z</time>
      </trkpt>
      <trkpt lat="44.23344" lon="4.43591">
        <ele>118</ele>
        <time>2021-07-04T13:52:45Z</time>
      </trkpt>
      <trkpt lat="44.23416" lon="4.43704">
        <ele>109</ele>
        <time>2021-07-04T13:53:10Z</time>
      </trkpt>
      <trkpt lat="44.23444" lon="4.43788">
        <ele>105</ele>
        <time>2021-07-04T13:53:26Z</time>
      </trkpt>
      <trkpt lat="44.2351" lon="4.44013">
        <ele>93</ele>
        <time>2021-07-04T13:54:07Z</time>
      </trkpt>
      <trkpt lat="44.23529" lon="4.44017">
        <ele>92</ele>
        <time>2021-07-04T13:54:11Z</time>
      </trkpt>
      <trkpt lat="44.23761" lon="4.43903">
        <ele>92</ele>
        <time>2021-07-04T13:55:09Z</time>
      </trkpt>
      <trkpt lat="44.23886" lon="4.43911">
        <ele>93</ele>
        <time>2021-07-04T13:55:38Z</time>
      </trkpt>
      <trkpt lat="44.23968" lon="4.43867">
        <ele>98</ele>
        <time>2021-07-04T13:55:58Z</time>
      </trkpt>
      <trkpt lat="44.23993" lon="4.43925">
        <ele>96</ele>
        <time>2021-07-04T13:56:10Z</time>
      </trkpt>
      <trkpt lat="44.24119" lon="4.43994">
        <ele>98</ele>
        <time>2021-07-04T13:56:41Z</time>
      </trkpt>
      <trkpt lat="44.24181" lon="4.43984">
        <ele>104</ele>
        <time>2021-07-04T13:56:56Z</time>
      </trkpt>
      <trkpt lat="44.24215" lon="4.44098">
        <ele>99</ele>
        <time>2021-07-04T13:57:16Z</time>
      </trkpt>
      <trkpt lat="44.24303" lon="4.44217">
        <ele>97</ele>
        <time>2021-07-04T13:57:45Z</time>
      </trkpt>
      <trkpt lat="44.24419" lon="4.44396">
        <ele>96</ele>
        <time>2021-07-04T13:58:25Z</time>
      </trkpt>
      <trkpt lat="44.24551" lon="4.44588">
        <ele>95</ele>
        <time>2021-07-04T13:59:10Z</time>
      </trkpt>
      <trkpt lat="44.24687" lon="4.44807">
        <ele>91</ele>
        <time>2021-07-04T13:59:58Z</time>
      </trkpt>
      <trkpt lat="44.2479" lon="4.44831">
        <ele>94</ele>
        <time>2021-07-04T14:00:23Z</time>
      </trkpt>
      <trkpt lat="44.24825" lon="4.44972">
        <ele>96</ele>
        <time>2021-07-04T14:00:48Z</time>
      </trkpt>
      <trkpt lat="44.24625" lon="4.45073">
        <ele>93</ele>
        <time>2021-07-04T14:01:38Z</time>
      </trkpt>
      <trkpt lat="44.24441" lon="4.45098">
        <ele>93</ele>
        <time>2021-07-04T14:02:21Z</time>
      </trkpt>
      <trkpt lat="44.2436" lon="4.45121">
        <ele>92</ele>
        <time>2021-07-04T14:02:40Z</time>
      </trkpt>
      <trkpt lat="44.24226" lon="4.45219">
        <ele>90</ele>
        <time>2021-07-04T14:03:15Z</time>
      </trkpt>
      <trkpt lat="44.2425" lon="4.45289">
        <ele>92</ele>
        <time>2021-07-04T14:03:28Z</time>
      </trkpt>
      <trkpt lat="44.2425" lon="4.45433">
        <ele>94</ele>
        <time>2021-07-04T14:03:52Z</time>
      </trkpt>
      <trkpt lat="44.24222" lon="4.45466">
        <ele>96</ele>
        <time>2021-07-04T14:04:01Z</time>
      </trkpt>
      <trkpt lat="44.24181" lon="4.45489">
        <ele>96</ele>
        <time>2021-07-04T14:04:11Z</time>
      </trkpt>
      <trkpt lat="44.24175" lon="4.45668">
        <ele>98</ele>
        <time>2021-07-04T14:04:41Z</time>
      </trkpt>
      <trkpt lat="44.24185" lon="4.45743">
        <ele>101</ele>
        <time>2021-07-04T14:04:54Z</time>
      </trkpt>
      <trkpt lat="44.24119" lon="4.4579">
        <ele>105</ele>
        <time>2021-07-04T14:05:11Z</time>
      </trkpt>
      <trkpt lat="44.24108" lon="4.45872">
        <ele>102</ele>
        <time>2021-07-04T14:05:25Z</time>
      </trkpt>
      <trkpt lat="44.24035" lon="4.45838">
        <ele>107</ele>
        <time>2021-07-04T14:05:43Z</time>
      </trkpt>
      <trkpt lat="44.24048" lon="4.45796">
        <ele>110</ele>
        <time>2021-07-04T14:05:51Z</time>
      </trkpt>
      <trkpt lat="44.24044" lon="4.45748">
        <ele>114</ele>
        <time>2021-07-04T14:05:59Z</time>
      </trkpt>
      <trkpt lat="44.24043" lon="4.45727">
        <ele>116</ele>
        <time>2021-07-04T14:06:02Z</time>
      </trkpt>
      <trkpt lat="44.24025" lon="4.45716">
        <ele>117</ele>
        <time>2021-07-04T14:06:07Z</time>
      </trkpt>
      <trkpt lat="44.23993" lon="4.45716">
        <ele>119</ele>
        <time>2021-07-04T14:06:15Z</time>
      </trkpt>
      <trkpt lat="44.23941" lon="4.45755">
        <ele>117</ele>
        <time>2021-07-04T14:06:28Z</time>
      </trkpt>
      <trkpt lat="44.23911" lon="4.45787">
        <ele>116</ele>
        <time>2021-07-04T14:06:37Z</time>
      </trkpt>
      <trkpt lat="44.23962" lon="4.45818">
        <ele>113</ele>
        <time>2021-07-04T14:06:50Z</time>
      </trkpt>
      <trkpt lat="44.24004" lon="4.4585">
        <ele>109</ele>
        <time>2021-07-04T14:07:01Z</time>
      </trkpt>
      <trkpt lat="44.24" lon="4.45918">
        <ele>106</ele>
        <time>2021-07-04T14:07:13Z</time>
      </trkpt>
      <trkpt lat="44.24001" lon="4.45933">
        <ele>106</ele>
        <time>2021-07-04T14:07:15Z</time>
      </trkpt>
      <trkpt lat="44.24019" lon="4.45974">
        <ele>106</ele>
        <time>2021-07-04T14:07:23Z</time>
      </trkpt>
      <trkpt lat="44.24017" lon="4.46006">
        <ele>107</ele>
        <time>2021-07-04T14:07:29Z</time>
      </trkpt>
      <trkpt lat="44.23972" lon="4.461">
        <ele>111</ele>
        <time>2021-07-04T14:07:48Z</time>
      </trkpt>
      <trkpt lat="44.23924" lon="4.46168">
        <ele>114</ele>
        <time>2021-07-04T14:08:04Z</time>
      </trkpt>
      <trkpt lat="44.23912" lon="4.4619">
        <ele>114</ele>
        <time>2021-07-04T14:08:08Z</time>
      </trkpt>
      <trkpt lat="44.23952" lon="4.46237">
        <ele>115</ele>
        <time>2021-07-04T14:08:20Z</time>
      </trkpt>
      <trkpt lat="44.23985" lon="4.46271">
        <ele>117</ele>
        <time>2021-07-04T14:08:30Z</time>
      </trkpt>
      <trkpt lat="44.2398" lon="4.46294">
        <ele>118</ele>
        <time>2021-07-04T14:08:34Z</time>
      </trkpt>
      <trkpt lat="44.23993" lon="4.46351">
        <ele>121</ele>
        <time>2021-07-04T14:08:44Z</time>
      </trkpt>
      <trkpt lat="44.23985" lon="4.4644">
        <ele>127</ele>
        <time>2021-07-04T14:08:59Z</time>
      </trkpt>
      <trkpt lat="44.23979" lon="4.46556">
        <ele>131</ele>
        <time>2021-07-04T14:09:18Z</time>
      </trkpt>
      <trkpt lat="44.23969" lon="4.46597">
        <ele>133</ele>
        <time>2021-07-04T14:09:26Z</time>
      </trkpt>
      <trkpt lat="44.23986" lon="4.46631">
        <ele>134</ele>
        <time>2021-07-04T14:09:33Z</time>
      </trkpt>
      <trkpt lat="44.23935" lon="4.47017">
        <ele>131</ele>
        <time>2021-07-04T14:10:38Z</time>
      </trkpt>
      <trkpt lat="44.23925" lon="4.47051">
        <ele>131</ele>
        <time>2021-07-04T14:10:44Z</time>
      </trkpt>
      <trkpt lat="44.23932" lon="4.471">
        <ele>133</ele>
        <time>2021-07-04T14:10:53Z</time>
      </trkpt>
      <trkpt lat="44.23925" lon="4.4717">
        <ele>134</ele>
        <time>2021-07-04T14:11:05Z</time>
      </trkpt>
      <trkpt lat="44.23927" lon="4.47255">
        <ele>138</ele>
        <time>2021-07-04T14:11:19Z</time>
      </trkpt>
      <trkpt lat="44.23967" lon="4.4729">
        <ele>141</ele>
        <time>2021-07-04T14:11:30Z</time>
      </trkpt>
      <trkpt lat="44.23973" lon="4.47344">
        <ele>142</ele>
        <time>2021-07-04T14:11:39Z</time>
      </trkpt>
      <trkpt lat="44.23991" lon="4.4741">
        <ele>144</ele>
        <time>2021-07-04T14:11:51Z</time>
      </trkpt>
      <trkpt lat="44.24001" lon="4.47509">
        <ele>153</ele>
        <time>2021-07-04T14:12:08Z</time>
      </trkpt>
      <trkpt lat="44.24" lon="4.47558">
        <ele>156</ele>
        <time>2021-07-04T14:12:16Z</time>
      </trkpt>
      <trkpt lat="44.23988" lon="4.47636">
        <ele>158</ele>
        <time>2021-07-04T14:12:29Z</time>
      </trkpt>
      <trkpt lat="44.23983" lon="4.4769">
        <ele>159</ele>
        <time>2021-07-04T14:12:38Z</time>
      </trkpt>
      <trkpt lat="44.23977" lon="4.47708">
        <ele>159</ele>
        <time>2021-07-04T14:12:42Z</time>
      </trkpt>
      <trkpt lat="44.23982" lon="4.47886">
        <ele>170</ele>
        <time>2021-07-04T14:13:11Z</time>
      </trkpt>
      <trkpt lat="44.24023" lon="4.47924">
        <ele>178</ele>
        <time>2021-07-04T14:13:23Z</time>
      </trkpt>
      <trkpt lat="44.24012" lon="4.48108">
        <ele>185</ele>
        <time>2021-07-04T14:13:54Z</time>
      </trkpt>
      <trkpt lat="44.24045" lon="4.48222">
        <ele>190</ele>
        <time>2021-07-04T14:14:14Z</time>
      </trkpt>
      <trkpt lat="44.24075" lon="4.48315">
        <ele>189</ele>
        <time>2021-07-04T14:14:31Z</time>
      </trkpt>
      <trkpt lat="44.24055" lon="4.48346">
        <ele>180</ele>
        <time>2021-07-04T14:14:38Z</time>
      </trkpt>
      <trkpt lat="44.24054" lon="4.48373">
        <ele>177</ele>
        <time>2021-07-04T14:14:43Z</time>
      </trkpt>
      <trkpt lat="44.24073" lon="4.48418">
        <ele>176</ele>
        <time>2021-07-04T14:14:52Z</time>
      </trkpt>
      <trkpt lat="44.24093" lon="4.48575">
        <ele>170</ele>
        <time>2021-07-04T14:15:18Z</time>
      </trkpt>
      <trkpt lat="44.241" lon="4.48614">
        <ele>169</ele>
        <time>2021-07-04T14:15:25Z</time>
      </trkpt>
      <trkpt lat="44.24113" lon="4.48632">
        <ele>170</ele>
        <time>2021-07-04T14:15:29Z</time>
      </trkpt>
      <trkpt lat="44.24143" lon="4.4864">
        <ele>175</ele>
        <time>2021-07-04T14:15:36Z</time>
      </trkpt>
      <trkpt lat="44.24174" lon="4.48677">
        <ele>177</ele>
        <time>2021-07-04T14:15:46Z</time>
      </trkpt>
      <trkpt lat="44.24188" lon="4.48704">
        <ele>180</ele>
        <time>2021-07-04T14:15:52Z</time>
      </trkpt>
      <trkpt lat="44.24189" lon="4.48715">
        <ele>179</ele>
        <time>2021-07-04T14:15:53Z</time>
      </trkpt>
      <trkpt lat="44.24183" lon="4.48715">
        <ele>178</ele>
        <time>2021-07-04T14:15:55Z</time>
      </trkpt>
      <trkpt lat="44.24176" lon="4.48707">
        <ele>176</ele>
        <time>2021-07-04T14:15:57Z</time>
      </trkpt>
      <trkpt lat="44.24165" lon="4.48702">
        <ele>174</ele>
        <time>2021-07-04T14:16:00Z</time>
      </trkpt>
      <trkpt lat="44.24152" lon="4.48707">
        <ele>172</ele>
        <time>2021-07-04T14:16:03Z</time>
      </trkpt>
      <trkpt lat="44.24125" lon="4.48706">
        <ele>167</ele>
        <time>2021-07-04T14:16:09Z</time>
      </trkpt>
      <trkpt lat="44.24106" lon="4.48712">
        <ele>163</ele>
        <time>2021-07-04T14:16:14Z</time>
      </trkpt>
      <trkpt lat="44.24099" lon="4.48719">
        <ele>162</ele>
        <time>2021-07-04T14:16:16Z</time>
      </trkpt>
      <trkpt lat="44.24101" lon="4.48761">
        <ele>160</ele>
        <time>2021-07-04T14:16:23Z</time>
      </trkpt>
      <trkpt lat="44.2411" lon="4.48777">
        <ele>162</ele>
        <time>2021-07-04T14:16:26Z</time>
      </trkpt>
      <trkpt lat="44.24125" lon="4.48794">
        <ele>164</ele>
        <time>2021-07-04T14:16:31Z</time>
      </trkpt>
      <trkpt lat="44.24129" lon="4.48818">
        <ele>165</ele>
        <time>2021-07-04T14:16:35Z</time>
      </trkpt>
      <trkpt lat="44.24131" lon="4.48833">
        <ele>165</ele>
        <time>2021-07-04T14:16:37Z</time>
      </trkpt>
      <trkpt lat="44.24147" lon="4.48864">
        <ele>168</ele>
        <time>2021-07-04T14:16:44Z</time>
      </trkpt>
      <trkpt lat="44.24155" lon="4.48883">
        <ele>170</ele>
        <time>2021-07-04T14:16:47Z</time>
      </trkpt>
      <trkpt lat="44.24154" lon="4.48898">
        <ele>171</ele>
        <time>2021-07-04T14:16:50Z</time>
      </trkpt>
      <trkpt lat="44.24146" lon="4.48902">
        <ele>171</ele>
        <time>2021-07-04T14:16:52Z</time>
      </trkpt>
      <trkpt lat="44.24136" lon="4.48895">
        <ele>169</ele>
        <time>2021-07-04T14:16:54Z</time>
      </trkpt>
      <trkpt lat="44.24129" lon="4.48899">
        <ele>169</ele>
        <time>2021-07-04T14:16:56Z</time>
      </trkpt>
      <trkpt lat="44.24129" lon="4.48912">
        <ele>170</ele>
        <time>2021-07-04T14:16:58Z</time>
      </trkpt>
      <trkpt lat="44.24133" lon="4.48945">
        <ele>173</ele>
        <time>2021-07-04T14:17:04Z</time>
      </trkpt>
      <trkpt lat="44.24141" lon="4.48968">
        <ele>175</ele>
        <time>2021-07-04T14:17:08Z</time>
      </trkpt>
      <trkpt lat="44.24159" lon="4.48995">
        <ele>179</ele>
        <time>2021-07-04T14:17:14Z</time>
      </trkpt>
      <trkpt lat="44.24174" lon="4.49021">
        <ele>182</ele>
        <time>2021-07-04T14:17:20Z</time>
      </trkpt>
      <trkpt lat="44.24136" lon="4.49077">
        <ele>183</ele>
        <time>2021-07-04T14:17:33Z</time>
      </trkpt>
      <trkpt lat="44.24129" lon="4.49123">
        <ele>187</ele>
        <time>2021-07-04T14:17:41Z</time>
      </trkpt>
      <trkpt lat="44.24075" lon="4.49136">
        <ele>182</ele>
        <time>2021-07-04T14:17:54Z</time>
      </trkpt>
      <trkpt lat="44.24027" lon="4.49178">
        <ele>182</ele>
        <time>2021-07-04T14:18:07Z</time>
      </trkpt>
      <trkpt lat="44.24005" lon="4.49211">
        <ele>183</ele>
        <time>2021-07-04T14:18:14Z</time>
      </trkpt>
      <trkpt lat="44.23965" lon="4.49237">
        <ele>185</ele>
        <time>2021-07-04T14:18:25Z</time>
      </trkpt>
      <trkpt lat="44.23917" lon="4.49197">
        <ele>182</ele>
        <time>2021-07-04T14:18:38Z</time>
      </trkpt>
      <trkpt lat="44.23896" lon="4.49151">
        <ele>180</ele>
        <time>2021-07-04T14:18:47Z</time>
      </trkpt>
      <trkpt lat="44.23848" lon="4.49125">
        <ele>180</ele>
        <time>2021-07-04T14:18:59Z</time>
      </trkpt>
      <trkpt lat="44.23836" lon="4.49111">
        <ele>180</ele>
        <time>2021-07-04T14:19:03Z</time>
      </trkpt>
      <trkpt lat="44.23823" lon="4.49029">
        <ele>177</ele>
        <time>2021-07-04T14:19:17Z</time>
      </trkpt>
      <trkpt lat="44.23809" lon="4.48932">
        <ele>174</ele>
        <time>2021-07-04T14:19:33Z</time>
      </trkpt>
      <trkpt lat="44.23784" lon="4.48909">
        <ele>174</ele>
        <time>2021-07-04T14:19:40Z</time>
      </trkpt>
      <trkpt lat="44.23751" lon="4.48909">
        <ele>176</ele>
        <time>2021-07-04T14:19:48Z</time>
      </trkpt>
      <trkpt lat="44.23728" lon="4.48909">
        <ele>180</ele>
        <time>2021-07-04T14:19:53Z</time>
      </trkpt>
      <trkpt lat="44.23666" lon="4.48743">
        <ele>176</ele>
        <time>2021-07-04T14:20:25Z</time>
      </trkpt>
      <trkpt lat="44.2364" lon="4.48668">
        <ele>175</ele>
        <time>2021-07-04T14:20:38Z</time>
      </trkpt>
      <trkpt lat="44.23608" lon="4.48613">
        <ele>178</ele>
        <time>2021-07-04T14:20:50Z</time>
      </trkpt>
      <trkpt lat="44.23576" lon="4.48561">
        <ele>178</ele>
        <time>2021-07-04T14:21:02Z</time>
      </trkpt>
      <trkpt lat="44.23533" lon="4.48508">
        <ele>174</ele>
        <time>2021-07-04T14:21:15Z</time>
      </trkpt>
      <trkpt lat="44.23505" lon="4.48479">
        <ele>171</ele>
        <time>2021-07-04T14:21:23Z</time>
      </trkpt>
      <trkpt lat="44.2349" lon="4.48482">
        <ele>171</ele>
        <time>2021-07-04T14:21:27Z</time>
      </trkpt>
      <trkpt lat="44.23442" lon="4.48555">
        <ele>172</ele>
        <time>2021-07-04T14:21:43Z</time>
      </trkpt>
      <trkpt lat="44.23413" lon="4.48595">
        <ele>171</ele>
        <time>2021-07-04T14:21:53Z</time>
      </trkpt>
      <trkpt lat="44.23372" lon="4.4864">
        <ele>167</ele>
        <time>2021-07-04T14:22:05Z</time>
      </trkpt>
      <trkpt lat="44.23366" lon="4.48641">
        <ele>166</ele>
        <time>2021-07-04T14:22:07Z</time>
      </trkpt>
      <trkpt lat="44.23367" lon="4.48632">
        <ele>166</ele>
        <time>2021-07-04T14:22:08Z</time>
      </trkpt>
      <trkpt lat="44.23386" lon="4.48605">
        <ele>167</ele>
        <time>2021-07-04T14:22:14Z</time>
      </trkpt>
      <trkpt lat="44.23395" lon="4.48555">
        <ele>163</ele>
        <time>2021-07-04T14:22:23Z</time>
      </trkpt>
      <trkpt lat="44.23353" lon="4.4854">
        <ele>155</ele>
        <time>2021-07-04T14:22:33Z</time>
      </trkpt>
      <trkpt lat="44.23294" lon="4.48528">
        <ele>150</ele>
        <time>2021-07-04T14:22:47Z</time>
      </trkpt>
      <trkpt lat="44.23248" lon="4.48503">
        <ele>148</ele>
        <time>2021-07-04T14:22:59Z</time>
      </trkpt>
      <trkpt lat="44.23219" lon="4.4847">
        <ele>148</ele>
        <time>2021-07-04T14:23:07Z</time>
      </trkpt>
      <trkpt lat="44.23189" lon="4.48447">
        <ele>149</ele>
        <time>2021-07-04T14:23:15Z</time>
      </trkpt>
      <trkpt lat="44.2317" lon="4.48438">
        <ele>150</ele>
        <time>2021-07-04T14:23:20Z</time>
      </trkpt>
      <trkpt lat="44.23149" lon="4.48444">
        <ele>149</ele>
        <time>2021-07-04T14:23:25Z</time>
      </trkpt>
      <trkpt lat="44.23089" lon="4.48557">
        <ele>146</ele>
        <time>2021-07-04T14:23:49Z</time>
      </trkpt>
      <trkpt lat="44.23014" lon="4.48625">
        <ele>146</ele>
        <time>2021-07-04T14:24:09Z</time>
      </trkpt>
      <trkpt lat="44.2292" lon="4.48655">
        <ele>140</ele>
        <time>2021-07-04T14:24:32Z</time>
      </trkpt>
      <trkpt lat="44.22904" lon="4.48685">
        <ele>140</ele>
        <time>2021-07-04T14:24:38Z</time>
      </trkpt>
      <trkpt lat="44.22911" lon="4.48811">
        <ele>140</ele>
        <time>2021-07-04T14:24:59Z</time>
      </trkpt>
      <trkpt lat="44.22877" lon="4.48919">
        <ele>138</ele>
        <time>2021-07-04T14:25:19Z</time>
      </trkpt>
      <trkpt lat="44.22786" lon="4.48979">
        <ele>139</ele>
        <time>2021-07-04T14:25:43Z</time>
      </trkpt>
      <trkpt lat="44.22704" lon="4.49">
        <ele>141</ele>
        <time>2021-07-04T14:26:02Z</time>
      </trkpt>
      <trkpt lat="44.22658" lon="4.49024">
        <ele>145</ele>
        <time>2021-07-04T14:26:14Z</time>
      </trkpt>
      <trkpt lat="44.2264" lon="4.49017">
        <ele>146</ele>
        <time>2021-07-04T14:26:18Z</time>
      </trkpt>
      <trkpt lat="44.22623" lon="4.48934">
        <ele>144</ele>
        <time>2021-07-04T14:26:32Z</time>
      </trkpt>
      <trkpt lat="44.22529" lon="4.48856">
        <ele>158</ele>
        <time>2021-07-04T14:26:58Z</time>
      </trkpt>
      <trkpt lat="44.22532" lon="4.48768">
        <ele>161</ele>
        <time>2021-07-04T14:27:13Z</time>
      </trkpt>
      <trkpt lat="44.22555" lon="4.48614">
        <ele>150</ele>
        <time>2021-07-04T14:27:39Z</time>
      </trkpt>
      <trkpt lat="44.22535" lon="4.48511">
        <ele>141</ele>
        <time>2021-07-04T14:27:57Z</time>
      </trkpt>
      <trkpt lat="44.22483" lon="4.48483">
        <ele>139</ele>
        <time>2021-07-04T14:28:10Z</time>
      </trkpt>
      <trkpt lat="44.22449" lon="4.48509">
        <ele>139</ele>
        <time>2021-07-04T14:28:19Z</time>
      </trkpt>
      <trkpt lat="44.22388" lon="4.48622">
        <ele>140</ele>
        <time>2021-07-04T14:28:43Z</time>
      </trkpt>
      <trkpt lat="44.22334" lon="4.48734">
        <ele>133</ele>
        <time>2021-07-04T14:29:05Z</time>
      </trkpt>
      <trkpt lat="44.22315" lon="4.48761">
        <ele>134</ele>
        <time>2021-07-04T14:29:12Z</time>
      </trkpt>
      <trkpt lat="44.22259" lon="4.48765">
        <ele>130</ele>
        <time>2021-07-04T14:29:25Z</time>
      </trkpt>
      <trkpt lat="44.22236" lon="4.48731">
        <ele>123</ele>
        <time>2021-07-04T14:29:32Z</time>
      </trkpt>
      <trkpt lat="44.22202" lon="4.48706">
        <ele>115</ele>
        <time>2021-07-04T14:29:41Z</time>
      </trkpt>
      <trkpt lat="44.22125" lon="4.48713">
        <ele>112</ele>
        <time>2021-07-04T14:29:59Z</time>
      </trkpt>
      <trkpt lat="44.22048" lon="4.48733">
        <ele>108</ele>
        <time>2021-07-04T14:30:18Z</time>
      </trkpt>
      <trkpt lat="44.2197" lon="4.48768">
        <ele>104</ele>
        <time>2021-07-04T14:30:37Z</time>
      </trkpt>
      <trkpt lat="44.21909" lon="4.48807">
        <ele>99</ele>
        <time>2021-07-04T14:30:53Z</time>
      </trkpt>
      <trkpt lat="44.21892" lon="4.48805">
        <ele>97</ele>
        <time>2021-07-04T14:30:57Z</time>
      </trkpt>
      <trkpt lat="44.21869" lon="4.48752">
        <ele>92</ele>
        <time>2021-07-04T14:31:07Z</time>
      </trkpt>
      <trkpt lat="44.21869" lon="4.48709">
        <ele>91</ele>
        <time>2021-07-04T14:31:14Z</time>
      </trkpt>
      <trkpt lat="44.21874" lon="4.48671">
        <ele>91</ele>
        <time>2021-07-04T14:31:21Z</time>
      </trkpt>
      <trkpt lat="44.21831" lon="4.48654">
        <ele>92</ele>
        <time>2021-07-04T14:31:31Z</time>
      </trkpt>
      <trkpt lat="44.21815" lon="4.48601">
        <ele>90</ele>
        <time>2021-07-04T14:31:41Z</time>
      </trkpt>
      <trkpt lat="44.21828" lon="4.48572">
        <ele>88</ele>
        <time>2021-07-04T14:31:46Z</time>
      </trkpt>
    </trkseg>
  </trk>
</gpx>